createdAt,value
2023-04-18T00:00:37.243Z,432.00
2023-04-18T00:01:37.254Z,434.00
2023-04-18T00:02:37.450Z,436.00
2023-04-18T00:03:37.503Z,439.00
2023-04-18T00:04:37.519Z,438.00
2023-04-18T00:05:37.341Z,437.00
2023-04-18T00:06:37.334Z,435.00
2023-04-18T00:07:37.348Z,434.00
2023-04-18T00:08:37.384Z,436.00
2023-04-18T00:09:37.461Z,437.00
2023-04-18T00:10:37.412Z,437.00
2023-04-18T00:11:37.417Z,437.00
2023-04-18T00:12:37.448Z,437.00
2023-04-18T00:13:37.451Z,438.00
2023-04-18T00:14:37.453Z,439.00
2023-04-18T00:15:37.529Z,438.00
2023-04-18T00:16:37.524Z,437.00
2023-04-18T00:17:37.533Z,435.00
2023-04-18T00:18:37.502Z,434.00
2023-04-18T00:19:37.525Z,432.00
2023-04-18T00:20:37.640Z,432.00
2023-04-18T00:21:37.565Z,433.00
2023-04-18T00:22:37.576Z,431.00
2023-04-18T00:23:37.570Z,431.00
2023-04-18T00:24:37.587Z,430.00
2023-04-18T00:25:37.611Z,430.00
2023-04-18T00:26:37.611Z,430.00
2023-04-18T00:27:37.628Z,431.00
2023-04-18T00:28:37.644Z,431.00
2023-04-18T00:29:37.688Z,432.00
2023-04-18T00:30:37.783Z,433.00
2023-04-18T00:31:37.694Z,433.00
2023-04-18T00:32:37.743Z,433.00
2023-04-18T00:33:37.743Z,435.00
2023-04-18T00:34:37.792Z,432.00
2023-04-18T00:35:37.888Z,433.00
2023-04-18T00:36:37.870Z,434.00
2023-04-18T00:37:37.908Z,433.00
2023-04-18T00:38:37.972Z,432.00
2023-04-18T00:39:37.998Z,429.00
2023-04-18T00:40:38.091Z,427.00
2023-04-18T00:41:38.114Z,427.00
2023-04-18T00:42:38.147Z,428.00
2023-04-18T00:43:38.168Z,430.00
2023-04-18T00:44:38.248Z,428.00
2023-04-18T00:45:38.263Z,428.00
2023-04-18T00:46:38.395Z,431.00
2023-04-18T00:47:38.432Z,430.00
2023-04-18T00:48:38.424Z,430.00
2023-04-18T00:49:38.442Z,429.00
2023-04-18T00:50:38.538Z,429.00
2023-04-18T00:51:38.579Z,428.00
2023-04-18T00:52:38.579Z,429.00
2023-04-18T00:53:38.619Z,430.00
2023-04-18T00:54:38.674Z,430.00
2023-04-18T00:55:38.711Z,432.00
2023-04-18T00:56:38.756Z,431.00
2023-04-18T00:57:38.794Z,430.00
2023-04-18T00:58:38.851Z,428.00
2023-04-18T00:59:38.897Z,427.00
2023-04-18T01:00:38.964Z,428.00
2023-04-18T01:01:39.129Z,429.00
2023-04-18T01:02:39.065Z,431.00
2023-04-18T01:03:39.205Z,430.00
2023-04-18T01:04:39.105Z,431.00
2023-04-18T01:05:39.016Z,432.00
2023-04-18T01:06:39.017Z,431.00
2023-04-18T01:07:39.042Z,431.00
2023-04-18T01:08:39.055Z,430.00
2023-04-18T01:09:39.060Z,431.00
2023-04-18T01:10:39.088Z,431.00
2023-04-18T01:11:39.085Z,429.00
2023-04-18T01:12:39.108Z,428.00
2023-04-18T01:13:39.215Z,427.00
2023-04-18T01:14:39.147Z,424.00
2023-04-18T01:15:39.208Z,425.00
2023-04-18T01:16:39.204Z,425.00
2023-04-18T01:17:39.230Z,423.00
2023-04-18T01:18:39.279Z,421.00
2023-04-18T01:19:39.268Z,421.00
2023-04-18T01:20:39.334Z,420.00
2023-04-18T01:21:39.349Z,420.00
2023-04-18T01:22:39.401Z,420.00
2023-04-18T01:23:39.523Z,422.00
2023-04-18T01:24:39.504Z,424.00
2023-04-18T01:25:39.570Z,424.00
2023-04-18T01:26:39.585Z,423.00
2023-04-18T01:27:39.631Z,423.00
2023-04-18T01:28:39.670Z,423.00
2023-04-18T01:29:39.736Z,425.00
2023-04-18T01:30:39.744Z,425.00
2023-04-18T01:31:39.792Z,427.00
2023-04-18T01:32:39.794Z,429.00
2023-04-18T01:33:39.782Z,431.00
2023-04-18T01:34:39.829Z,429.00
2023-04-18T01:35:39.828Z,426.00
2023-04-18T01:36:39.843Z,425.00
2023-04-18T01:37:39.854Z,423.00
2023-04-18T01:38:39.889Z,423.00
2023-04-18T01:39:39.890Z,423.00
2023-04-18T01:40:39.913Z,422.00
2023-04-18T01:41:39.920Z,423.00
2023-04-18T01:42:39.927Z,423.00
2023-04-18T01:43:39.944Z,423.00
2023-04-18T01:44:39.969Z,426.00
2023-04-18T01:45:39.997Z,426.00
2023-04-18T01:46:40.041Z,425.00
2023-04-18T01:47:40.029Z,426.00
2023-04-18T01:48:40.021Z,426.00
2023-04-18T01:49:40.046Z,428.00
2023-04-18T01:50:40.076Z,428.00
2023-04-18T01:51:40.090Z,425.00
2023-04-18T01:52:40.098Z,424.00
2023-04-18T01:53:40.100Z,426.00
2023-04-18T01:54:40.141Z,424.00
2023-04-18T01:55:40.180Z,422.00
2023-04-18T01:56:40.228Z,422.00
2023-04-18T01:57:40.269Z,423.00
2023-04-18T01:58:40.312Z,423.00
2023-04-18T01:59:40.365Z,421.00
2023-04-18T02:00:40.451Z,419.00
2023-04-18T02:01:40.425Z,418.00
2023-04-18T02:02:40.530Z,419.00
2023-04-18T02:03:40.650Z,421.00
2023-04-18T02:04:40.556Z,421.00
2023-04-18T02:05:40.611Z,420.00
2023-04-18T02:06:40.655Z,421.00
2023-04-18T02:07:40.681Z,420.00
2023-04-18T02:08:40.697Z,419.00
2023-04-18T02:09:40.718Z,418.00
2023-04-18T02:10:40.736Z,417.00
2023-04-18T02:11:40.730Z,418.00
2023-04-18T02:12:40.733Z,420.00
2023-04-18T02:13:40.754Z,423.00
2023-04-18T02:14:40.774Z,424.00
2023-04-18T02:15:40.795Z,424.00
2023-04-18T02:16:40.856Z,422.00
2023-04-18T02:17:40.889Z,423.00
2023-04-18T02:18:40.847Z,424.00
2023-04-18T02:19:40.856Z,423.00
2023-04-18T02:20:40.871Z,422.00
2023-04-18T02:21:40.877Z,425.00
2023-04-18T02:22:40.910Z,426.00
2023-04-18T02:23:40.937Z,428.00
2023-04-18T02:24:40.922Z,431.00
2023-04-18T02:25:40.953Z,427.00
2023-04-18T02:26:41.013Z,426.00
2023-04-18T02:27:41.063Z,426.00
2023-04-18T02:28:41.123Z,424.00
2023-04-18T02:29:41.204Z,424.00
2023-04-18T02:30:41.221Z,424.00
2023-04-18T02:31:41.392Z,423.00
2023-04-18T02:32:41.364Z,424.00
2023-04-18T02:33:41.332Z,421.00
2023-04-18T02:34:41.355Z,420.00
2023-04-18T02:35:41.386Z,423.00
2023-04-18T02:36:41.407Z,422.00
2023-04-18T02:37:41.424Z,421.00
2023-04-18T02:38:41.427Z,420.00
2023-04-18T02:39:41.439Z,418.00
2023-04-18T02:40:41.462Z,418.00
2023-04-18T02:41:41.484Z,417.00
2023-04-18T02:42:41.479Z,415.00
2023-04-18T02:43:41.518Z,416.00
2023-04-18T02:44:41.528Z,416.00
2023-04-18T02:45:41.678Z,415.00
2023-04-18T02:46:41.596Z,415.00
2023-04-18T02:47:51.782Z,417.00
2023-04-18T02:48:42.684Z,415.00
2023-04-18T02:49:41.608Z,412.00
2023-04-18T02:50:41.615Z,413.00
2023-04-18T02:51:41.690Z,412.00
2023-04-18T02:52:41.670Z,411.00
2023-04-18T02:53:41.684Z,409.00
2023-04-18T02:54:41.694Z,410.00
2023-04-18T02:55:41.712Z,410.00
2023-04-18T02:56:41.743Z,411.00
2023-04-18T02:57:41.756Z,410.00
2023-04-18T02:58:41.768Z,410.00
2023-04-18T02:59:41.790Z,410.00
2023-04-18T03:00:41.797Z,411.00
2023-04-18T03:01:41.871Z,411.00
2023-04-18T03:02:41.916Z,411.00
2023-04-18T03:03:41.945Z,409.00
2023-04-18T03:04:42.043Z,408.00
2023-04-18T03:05:42.106Z,407.00
2023-04-18T03:06:42.187Z,405.00
2023-04-18T03:07:42.254Z,403.00
2023-04-18T03:08:42.320Z,405.00
2023-04-18T03:09:42.425Z,407.00
2023-04-18T03:10:42.502Z,408.00
2023-04-18T03:11:42.608Z,407.00
2023-04-18T03:12:42.674Z,407.00
2023-04-18T03:13:42.778Z,406.00
2023-04-18T03:14:42.854Z,408.00
2023-04-18T03:15:42.977Z,410.00
2023-04-18T03:16:43.042Z,411.00
2023-04-18T03:17:43.215Z,412.00
2023-04-18T03:18:43.239Z,408.00
2023-04-18T03:19:43.318Z,407.00
2023-04-18T03:20:43.396Z,408.00
2023-04-18T03:21:43.508Z,407.00
2023-04-18T03:22:43.592Z,405.00
2023-04-18T03:23:43.674Z,405.00
2023-04-18T03:24:43.676Z,405.00
2023-04-18T03:25:43.704Z,406.00
2023-04-18T03:26:43.738Z,405.00
2023-04-18T03:27:43.737Z,406.00
2023-04-18T03:28:43.764Z,408.00
2023-04-18T03:29:43.799Z,410.00
2023-04-18T03:30:43.811Z,410.00
2023-04-18T03:31:43.885Z,409.00
2023-04-18T03:32:43.889Z,410.00
2023-04-18T03:33:43.911Z,411.00
2023-04-18T03:34:43.968Z,412.00
2023-04-18T03:35:44.036Z,408.00
2023-04-18T03:36:45.953Z,408.00
2023-04-18T03:37:44.064Z,409.00
2023-04-18T03:38:44.077Z,410.00
2023-04-18T03:39:44.118Z,410.00
2023-04-18T03:40:44.116Z,410.00
2023-04-18T03:41:44.158Z,412.00
2023-04-18T03:42:44.167Z,412.00
2023-04-18T03:43:44.193Z,412.00
2023-04-18T03:44:44.197Z,411.00
2023-04-18T03:45:44.370Z,411.00
2023-04-18T03:46:44.305Z,412.00
2023-04-18T03:47:44.291Z,414.00
2023-04-18T03:48:44.267Z,415.00
2023-04-18T03:49:44.269Z,414.00
2023-04-18T03:50:44.280Z,411.00
2023-04-18T03:51:44.345Z,411.00
2023-04-18T03:52:44.315Z,412.00
2023-04-18T03:53:44.331Z,410.00
2023-04-18T03:54:44.343Z,412.00
2023-04-18T03:55:44.366Z,411.00
2023-04-18T03:56:44.384Z,412.00
2023-04-18T03:57:44.452Z,414.00
2023-04-18T03:58:44.474Z,411.00
2023-04-18T03:59:46.045Z,409.00
2023-04-18T04:00:44.450Z,408.00
2023-04-18T04:01:44.533Z,410.00
2023-04-18T04:02:44.659Z,411.00
2023-04-18T04:03:44.632Z,411.00
2023-04-18T04:04:44.576Z,413.00
2023-04-18T04:05:44.540Z,413.00
2023-04-18T04:06:44.556Z,413.00
2023-04-18T04:07:44.578Z,411.00
2023-04-18T04:08:44.581Z,409.00
2023-04-18T04:09:44.615Z,412.00
2023-04-18T04:10:44.616Z,413.00
2023-04-18T04:11:44.654Z,414.00
2023-04-18T04:12:44.646Z,415.00
2023-04-18T04:13:44.675Z,416.00
2023-04-18T04:14:44.683Z,415.00
2023-04-18T04:15:44.713Z,416.00
2023-04-18T04:16:44.777Z,416.00
2023-04-18T04:17:44.757Z,417.00
2023-04-18T04:18:44.764Z,420.00
2023-04-18T04:19:44.773Z,421.00
2023-04-18T04:20:44.794Z,420.00
2023-04-18T04:21:44.804Z,420.00
2023-04-18T04:22:44.839Z,421.00
2023-04-18T04:23:44.846Z,418.00
2023-04-18T04:24:44.841Z,417.00
2023-04-18T04:25:44.872Z,418.00
2023-04-18T04:26:44.929Z,415.00
2023-04-18T04:27:44.920Z,412.00
2023-04-18T04:28:44.913Z,410.00
2023-04-18T04:29:44.934Z,411.00
2023-04-18T04:30:44.950Z,410.00
2023-04-18T04:31:44.993Z,412.00
2023-04-18T04:32:45.016Z,416.00
2023-04-18T04:33:44.996Z,414.00
2023-04-18T04:34:45.019Z,411.00
2023-04-18T04:35:45.030Z,412.00
2023-04-18T04:36:45.041Z,408.00
2023-04-18T04:37:45.067Z,406.00
2023-04-18T04:38:45.067Z,404.00
2023-04-18T04:39:45.107Z,404.00
2023-04-18T04:40:45.093Z,406.00
2023-04-18T04:41:45.122Z,407.00
2023-04-18T04:42:45.175Z,404.00
2023-04-18T04:43:45.280Z,406.00
2023-04-18T04:44:45.365Z,410.00
2023-04-18T04:45:45.524Z,409.00
2023-04-18T04:46:45.477Z,409.00
2023-04-18T04:47:45.506Z,407.00
2023-04-18T04:48:45.510Z,406.00
2023-04-18T04:49:45.510Z,405.00
2023-04-18T04:50:45.526Z,406.00
2023-04-18T04:51:45.557Z,406.00
2023-04-18T04:52:45.590Z,404.00
2023-04-18T04:53:45.580Z,404.00
2023-04-18T04:54:45.606Z,404.00
2023-04-18T04:55:45.630Z,404.00
2023-04-18T04:56:45.632Z,405.00
2023-04-18T04:57:45.663Z,404.00
2023-04-18T04:58:45.709Z,403.00
2023-04-18T04:59:45.729Z,403.00
2023-04-18T05:00:45.801Z,403.00
2023-04-18T05:01:45.957Z,403.00
2023-04-18T05:02:45.979Z,401.00
2023-04-18T05:03:46.025Z,397.00
2023-04-18T05:04:45.924Z,395.00
2023-04-18T05:05:45.949Z,395.00
2023-04-18T05:06:45.977Z,396.00
2023-04-18T05:07:45.993Z,395.00
2023-04-18T05:08:46.010Z,395.00
2023-04-18T05:09:46.035Z,394.00
2023-04-18T05:10:46.058Z,395.00
2023-04-18T05:11:46.069Z,399.00
2023-04-18T05:12:46.115Z,401.00
2023-04-18T05:13:46.108Z,402.00
2023-04-18T05:14:46.148Z,404.00
2023-04-18T05:15:46.198Z,405.00
2023-04-18T05:16:46.501Z,407.00
2023-04-18T05:17:46.392Z,408.00
2023-04-18T05:18:46.359Z,405.00
2023-04-18T05:19:46.449Z,406.00
2023-04-18T05:20:46.463Z,408.00
2023-04-18T05:21:46.570Z,407.00
2023-04-18T05:22:46.581Z,407.00
2023-04-18T05:23:46.621Z,409.00
2023-04-18T05:24:46.689Z,410.00
2023-04-18T05:25:46.824Z,407.00
2023-04-18T05:26:46.889Z,406.00
2023-04-18T05:27:46.990Z,406.00
2023-04-18T05:28:47.039Z,405.00
2023-04-18T05:29:47.197Z,407.00
2023-04-18T05:30:47.238Z,410.00
2023-04-18T05:31:47.316Z,406.00
2023-04-18T05:32:47.455Z,405.00
2023-04-18T05:33:47.487Z,405.00
2023-04-18T05:34:47.561Z,406.00
2023-04-18T05:35:47.668Z,407.00
2023-04-18T05:36:47.747Z,413.00
2023-04-18T05:37:47.861Z,413.00
2023-04-18T05:38:47.930Z,412.00
2023-04-18T05:39:48.015Z,411.00
2023-04-18T05:40:48.134Z,411.00
2023-04-18T05:41:48.190Z,410.00
2023-04-18T05:42:48.461Z,407.00
2023-04-18T05:43:58.105Z,406.00
2023-04-18T05:44:49.361Z,405.00
2023-04-18T05:45:48.392Z,408.00
2023-04-18T05:46:48.467Z,409.00
2023-04-18T05:47:48.493Z,412.00
2023-04-18T05:48:48.427Z,413.00
2023-04-18T05:49:48.442Z,415.00
2023-04-18T05:50:48.476Z,418.00
2023-04-18T05:51:48.485Z,421.00
2023-04-18T05:52:48.496Z,424.00
2023-04-18T05:53:48.540Z,425.00
2023-04-18T05:54:48.621Z,424.00
2023-04-18T05:55:48.695Z,425.00
2023-04-18T05:56:48.827Z,430.00
2023-04-18T05:57:48.894Z,436.00
2023-04-18T05:58:48.973Z,441.00
2023-04-18T05:59:49.041Z,445.00
2023-04-18T06:00:49.204Z,447.00
2023-04-18T06:01:49.217Z,448.00
2023-04-18T06:02:49.436Z,452.00
2023-04-18T06:03:49.609Z,455.00
2023-04-18T06:04:49.778Z,456.00
2023-04-18T06:05:49.662Z,457.00
2023-04-18T06:06:49.653Z,459.00
2023-04-18T06:07:49.670Z,462.00
2023-04-18T06:08:49.690Z,465.00
2023-04-18T06:09:49.752Z,468.00
2023-04-18T06:10:49.734Z,468.00
2023-04-18T06:11:49.737Z,470.00
2023-04-18T06:12:49.769Z,470.00
2023-04-18T06:13:49.814Z,471.00
2023-04-18T06:14:49.843Z,472.00
2023-04-18T06:15:49.879Z,475.00
2023-04-18T06:16:49.934Z,477.00
2023-04-18T06:17:50.041Z,476.00
2023-04-18T06:18:50.129Z,474.00
2023-04-18T06:19:50.236Z,471.00
2023-04-18T06:20:50.346Z,471.00
2023-04-18T06:21:50.393Z,471.00
2023-04-18T06:22:50.477Z,471.00
2023-04-18T06:23:50.620Z,471.00
2023-04-18T06:24:50.611Z,470.00
2023-04-18T06:25:50.640Z,469.00
2023-04-18T06:26:50.639Z,469.00
2023-04-18T06:27:50.701Z,468.00
2023-04-18T06:28:50.700Z,466.00
2023-04-18T06:29:50.700Z,467.00
2023-04-18T06:30:50.722Z,464.00
2023-04-18T06:31:50.773Z,463.00
2023-04-18T06:32:50.830Z,460.00
2023-04-18T06:33:51.788Z,463.00
2023-04-18T06:34:50.975Z,465.00
2023-04-18T06:35:51.069Z,468.00
2023-04-18T06:36:51.144Z,469.00
2023-04-18T06:37:51.245Z,470.00
2023-04-18T06:38:51.288Z,471.00
2023-04-18T06:39:51.320Z,470.00
2023-04-18T06:40:51.315Z,471.00
2023-04-18T06:41:51.356Z,471.00
2023-04-18T06:42:51.358Z,471.00
2023-04-18T06:44:02.888Z,474.00
2023-04-18T06:44:52.423Z,473.00
2023-04-18T06:45:51.420Z,471.00
2023-04-18T06:46:51.426Z,472.00
2023-04-18T06:47:51.518Z,471.00
2023-04-18T06:48:51.624Z,469.00
2023-04-18T06:49:51.472Z,470.00
2023-04-18T06:50:51.501Z,472.00
2023-04-18T06:51:51.505Z,471.00
2023-04-18T06:52:51.544Z,471.00
2023-04-18T06:53:51.612Z,473.00
2023-04-18T06:54:51.622Z,471.00
2023-04-18T06:55:51.613Z,472.00
2023-04-18T06:56:51.626Z,475.00
2023-04-18T06:57:51.675Z,476.00
2023-04-18T06:58:51.663Z,478.00
2023-04-18T06:59:51.696Z,478.00
2023-04-18T07:00:51.778Z,477.00
2023-04-18T07:01:51.696Z,475.00
2023-04-18T07:02:51.865Z,479.00
2023-04-18T07:03:51.812Z,481.00
2023-04-18T07:04:51.760Z,484.00
2023-04-18T07:05:51.761Z,486.00
2023-04-18T07:06:51.775Z,485.00
2023-04-18T07:07:51.821Z,485.00
2023-04-18T07:08:53.347Z,486.00
2023-04-18T07:09:52.013Z,488.00
2023-04-18T07:10:52.083Z,489.00
2023-04-18T07:11:52.120Z,491.00
2023-04-18T07:12:52.798Z,492.00
2023-04-18T07:13:52.218Z,491.00
2023-04-18T07:14:52.260Z,490.00
2023-04-18T07:15:52.319Z,490.00
2023-04-18T07:16:52.460Z,491.00
2023-04-18T07:17:52.417Z,493.00
2023-04-18T07:18:52.451Z,495.00
2023-04-18T07:19:52.502Z,496.00
2023-04-18T07:20:52.615Z,494.00
2023-04-18T07:21:52.596Z,492.00
2023-04-18T07:22:52.615Z,491.00
2023-04-18T07:23:52.724Z,490.00
2023-04-18T07:24:52.711Z,490.00
2023-04-18T07:25:52.736Z,492.00
2023-04-18T07:26:54.902Z,490.00
2023-04-18T07:27:52.819Z,492.00
2023-04-18T07:28:52.840Z,494.00
2023-04-18T07:29:53.813Z,496.00
2023-04-18T07:30:52.880Z,498.00
2023-04-18T07:31:52.833Z,500.00
2023-04-18T07:32:52.908Z,500.00
2023-04-18T07:33:52.880Z,499.00
2023-04-18T07:34:52.913Z,501.00
2023-04-18T07:35:53.942Z,503.00
2023-04-18T07:36:53.037Z,503.00
2023-04-18T07:37:52.973Z,505.00
2023-04-18T07:38:52.974Z,502.00
2023-04-18T07:39:53.001Z,502.00
2023-04-18T07:40:53.018Z,499.00
2023-04-18T07:41:53.023Z,493.00
2023-04-18T07:42:53.031Z,489.00
2023-04-18T07:43:53.058Z,484.00
2023-04-18T07:44:53.069Z,482.00
2023-04-18T07:45:53.118Z,480.00
2023-04-18T07:46:53.119Z,479.00
2023-04-18T07:47:53.225Z,479.00
2023-04-18T07:48:53.113Z,477.00
2023-04-18T07:49:53.128Z,475.00
2023-04-18T07:50:53.150Z,475.00
2023-04-18T07:51:53.187Z,473.00
2023-04-18T07:52:53.222Z,473.00
2023-04-18T07:53:53.191Z,474.00
2023-04-18T07:54:53.267Z,473.00
2023-04-18T07:55:53.285Z,469.00
2023-04-18T07:56:53.223Z,469.00
2023-04-18T07:57:53.257Z,470.00
2023-04-18T07:58:53.287Z,471.00
2023-04-18T07:59:53.299Z,468.00
2023-04-18T08:00:53.333Z,467.00
2023-04-18T08:01:53.349Z,470.00
2023-04-18T08:02:53.474Z,471.00
2023-04-18T08:03:53.552Z,469.00
2023-04-18T08:04:53.671Z,463.00
2023-04-18T08:05:54.328Z,464.00
2023-04-18T08:06:53.436Z,462.00
2023-04-18T08:07:53.449Z,460.00
2023-04-18T08:08:53.562Z,460.00
2023-04-18T08:09:54.355Z,461.00
2023-04-18T08:10:58.386Z,462.00
2023-04-18T08:11:53.453Z,462.00
2023-04-18T08:12:53.485Z,459.00
2023-04-18T08:13:53.488Z,458.00
2023-04-18T08:14:53.523Z,460.00
2023-04-18T08:15:53.556Z,458.00
2023-04-18T08:16:53.564Z,457.00
2023-04-18T08:17:53.658Z,455.00
2023-04-18T08:18:53.599Z,455.00
2023-04-18T08:19:53.666Z,454.00
2023-04-18T08:20:53.635Z,451.00
2023-04-18T08:21:53.637Z,447.00
2023-04-18T08:23:06.304Z,444.00
2023-04-18T08:23:53.675Z,440.00
2023-04-18T08:25:04.500Z,436.00
2023-04-18T08:25:54.760Z,434.00
2023-04-18T08:26:53.751Z,430.00
2023-04-18T08:27:53.813Z,430.00
2023-04-18T08:28:53.929Z,427.00
2023-04-18T08:29:53.829Z,424.00
2023-04-18T08:30:53.866Z,419.00
2023-04-18T08:31:53.927Z,414.00
2023-04-18T08:32:54.027Z,415.00
2023-04-18T08:33:53.936Z,417.00
2023-04-18T08:34:53.959Z,415.00
2023-04-18T08:35:54.007Z,413.00
2023-04-18T08:36:54.825Z,414.00
2023-04-18T08:37:54.216Z,412.00
2023-04-18T08:38:54.240Z,410.00
2023-04-18T08:39:54.263Z,409.00
2023-04-18T08:40:54.361Z,408.00
2023-04-18T08:41:54.283Z,407.00
2023-04-18T08:42:54.354Z,407.00
2023-04-18T08:43:56.981Z,406.00
2023-04-18T08:44:54.386Z,407.00
2023-04-18T08:45:54.387Z,408.00
2023-04-18T08:46:54.426Z,408.00
2023-04-18T08:47:54.474Z,408.00
2023-04-18T08:48:54.450Z,407.00
2023-04-18T08:49:54.464Z,410.00
2023-04-18T08:50:54.472Z,410.00
2023-04-18T08:51:54.527Z,408.00
2023-04-18T08:52:54.538Z,406.00
2023-04-18T08:53:54.535Z,408.00
2023-04-18T08:54:54.569Z,410.00
2023-04-18T08:55:54.569Z,412.00
2023-04-18T08:56:54.619Z,414.00
2023-04-18T08:57:54.640Z,411.00
2023-04-18T08:58:54.607Z,409.00
2023-04-18T08:59:54.627Z,408.00
2023-04-18T09:00:54.707Z,408.00
2023-04-18T09:01:54.692Z,406.00
2023-04-18T09:02:54.778Z,403.00
2023-04-18T09:03:54.728Z,402.00
2023-04-18T09:04:54.713Z,404.00
2023-04-18T09:05:54.726Z,405.00
2023-04-18T09:06:54.738Z,405.00
2023-04-18T09:07:54.778Z,403.00
2023-04-18T09:08:54.866Z,404.00
2023-04-18T09:09:54.799Z,404.00
2023-04-18T09:10:54.815Z,404.00
2023-04-18T09:11:54.838Z,406.00
2023-04-18T09:12:54.832Z,406.00
2023-04-18T09:13:54.826Z,408.00
2023-04-18T09:14:54.919Z,410.00
2023-04-18T09:15:54.881Z,411.00
2023-04-18T09:16:54.927Z,412.00
2023-04-18T09:17:54.971Z,413.00
2023-04-18T09:18:54.918Z,411.00
2023-04-18T09:19:54.916Z,410.00
2023-04-18T09:20:54.947Z,413.00
2023-04-18T09:21:54.947Z,414.00
2023-04-18T09:22:54.954Z,417.00
2023-04-18T09:23:54.962Z,420.00
2023-04-18T09:24:54.993Z,421.00
2023-04-18T09:25:55.002Z,422.00
2023-04-18T09:26:55.028Z,422.00
2023-04-18T09:27:54.992Z,421.00
2023-04-18T09:28:55.005Z,422.00
2023-04-18T09:29:57.318Z,423.00
2023-04-18T09:30:55.063Z,425.00
2023-04-18T09:31:55.043Z,427.00
2023-04-18T09:32:55.103Z,427.00
2023-04-18T09:33:55.046Z,429.00
2023-04-18T09:34:55.055Z,431.00
2023-04-18T09:35:55.087Z,431.00
2023-04-18T09:36:55.172Z,433.00
2023-04-18T09:37:55.087Z,431.00
2023-04-18T09:38:56.899Z,428.00
2023-04-18T09:39:55.095Z,428.00
2023-04-18T09:40:55.196Z,427.00
2023-04-18T09:41:55.125Z,427.00
2023-04-18T09:42:55.119Z,428.00
2023-04-18T09:43:55.133Z,426.00
2023-04-18T09:44:56.820Z,427.00
2023-04-18T09:45:55.159Z,428.00
2023-04-18T09:46:55.139Z,429.00
2023-04-18T09:47:55.205Z,432.00
2023-04-18T09:48:55.144Z,433.00
2023-04-18T09:49:55.146Z,434.00
2023-04-18T09:50:55.145Z,436.00
2023-04-18T09:51:55.153Z,436.00
2023-04-18T09:52:55.183Z,437.00
2023-04-18T09:53:55.176Z,434.00
2023-04-18T09:54:55.184Z,435.00
2023-04-18T09:55:57.696Z,435.00
2023-04-18T09:56:55.224Z,435.00
2023-04-18T09:57:55.244Z,437.00
2023-04-18T09:58:55.215Z,440.00
2023-04-18T09:59:55.244Z,440.00
2023-04-18T10:00:55.381Z,441.00
2023-04-18T10:01:55.407Z,442.00
2023-04-18T10:02:55.341Z,443.00
2023-04-18T10:03:55.463Z,442.00
2023-04-18T10:04:55.351Z,443.00
2023-04-18T10:05:57.208Z,443.00
2023-04-18T10:06:55.364Z,446.00
2023-04-18T10:07:55.372Z,445.00
2023-04-18T10:08:55.397Z,442.00
2023-04-18T10:09:55.408Z,441.00
2023-04-18T10:10:55.446Z,440.00
2023-04-18T10:11:55.478Z,441.00
2023-04-18T10:12:55.484Z,445.00
2023-04-18T10:13:55.515Z,446.00
2023-04-18T10:14:55.551Z,449.00
2023-04-18T10:15:55.579Z,451.00
2023-04-18T10:16:55.559Z,452.00
2023-04-18T10:18:04.624Z,453.00
2023-04-18T10:18:56.577Z,450.00
2023-04-18T10:19:55.591Z,446.00
2023-04-18T10:20:55.648Z,443.00
2023-04-18T10:21:55.626Z,444.00
2023-04-18T10:22:55.629Z,442.00
2023-04-18T10:23:55.637Z,443.00
2023-04-18T10:24:55.634Z,444.00
2023-04-18T10:25:55.643Z,448.00
2023-04-18T10:26:55.671Z,449.00
2023-04-18T10:27:55.677Z,449.00
2023-04-18T10:28:55.673Z,450.00
2023-04-18T10:29:55.683Z,450.00
2023-04-18T10:30:55.684Z,452.00
2023-04-18T10:31:55.844Z,456.00
2023-04-18T10:32:55.735Z,458.00
2023-04-18T10:34:17.684Z,458.00
2023-04-18T10:34:56.817Z,459.00
2023-04-18T10:35:55.704Z,459.00
2023-04-18T10:36:55.730Z,460.00
2023-04-18T10:37:55.723Z,461.00
2023-04-18T10:38:55.706Z,461.00
2023-04-18T10:39:55.740Z,460.00
2023-04-18T10:40:55.714Z,461.00
2023-04-18T10:41:55.732Z,459.00
2023-04-18T10:42:55.743Z,458.00
2023-04-18T10:43:55.776Z,460.00
2023-04-18T10:44:55.739Z,463.00
2023-04-18T10:45:55.793Z,463.00
2023-04-18T10:46:55.772Z,464.00
2023-04-18T10:47:55.789Z,465.00
2023-04-18T10:48:55.813Z,469.00
2023-04-18T10:49:55.861Z,470.00
2023-04-18T10:50:55.800Z,467.00
2023-04-18T10:51:55.860Z,465.00
2023-04-18T10:52:55.902Z,464.00
2023-04-18T10:53:55.905Z,464.00
2023-04-18T10:54:57.077Z,462.00
2023-04-18T10:55:55.905Z,464.00
2023-04-18T10:56:55.895Z,467.00
2023-04-18T10:57:55.940Z,465.00
2023-04-18T10:58:55.911Z,466.00
2023-04-18T10:59:55.929Z,465.00
2023-04-18T11:00:56.077Z,465.00
2023-04-18T11:01:56.021Z,462.00
2023-04-18T11:02:56.185Z,458.00
2023-04-18T11:03:56.057Z,457.00
2023-04-18T11:04:56.129Z,456.00
2023-04-18T11:05:55.979Z,454.00
2023-04-18T11:06:55.989Z,453.00
2023-04-18T11:07:56.006Z,453.00
2023-04-18T11:08:56.001Z,452.00
2023-04-18T11:09:55.998Z,453.00
2023-04-18T11:10:55.990Z,450.00
2023-04-18T11:11:56.057Z,451.00
2023-04-18T11:12:56.035Z,452.00
2023-04-18T11:13:56.077Z,454.00
2023-04-18T11:14:56.102Z,454.00
2023-04-18T11:15:56.813Z,451.00
2023-04-18T11:16:57.995Z,452.00
2023-04-18T11:17:56.108Z,451.00
2023-04-18T11:18:56.060Z,449.00
2023-04-18T11:19:56.084Z,450.00
2023-04-18T11:20:56.259Z,450.00
2023-04-18T11:21:56.175Z,449.00
2023-04-18T11:22:56.100Z,450.00
2023-04-18T11:23:56.137Z,450.00
2023-04-18T11:24:56.259Z,446.00
2023-04-18T11:25:56.170Z,445.00
2023-04-18T11:26:56.492Z,443.00
2023-04-18T11:27:56.345Z,441.00
2023-04-18T11:28:56.533Z,444.00
2023-04-18T11:29:56.435Z,442.00
2023-04-18T11:30:56.526Z,444.00
2023-04-18T11:31:58.484Z,445.00
2023-04-18T11:32:56.703Z,447.00
2023-04-18T11:33:56.754Z,446.00
2023-04-18T11:34:56.812Z,446.00
2023-04-18T11:35:57.049Z,444.00
2023-04-18T11:36:57.077Z,442.00
2023-04-18T11:37:57.158Z,442.00
2023-04-18T11:38:57.112Z,442.00
2023-04-18T11:39:57.183Z,440.00
2023-04-18T11:40:57.257Z,439.00
2023-04-18T11:41:57.358Z,437.00
2023-04-18T11:42:57.425Z,439.00
2023-04-18T11:43:57.502Z,440.00
2023-04-18T11:44:57.576Z,443.00
2023-04-18T11:45:57.739Z,445.00
2023-04-18T11:46:57.714Z,448.00
2023-04-18T11:47:57.810Z,450.00
2023-04-18T11:48:57.867Z,450.00
2023-04-18T11:49:57.991Z,449.00
2023-04-18T11:50:57.984Z,448.00
2023-04-18T11:51:58.093Z,451.00
2023-04-18T11:52:58.149Z,453.00
2023-04-18T11:53:58.194Z,450.00
2023-04-18T11:54:58.281Z,452.00
2023-04-18T11:55:58.338Z,454.00
2023-04-18T11:56:58.381Z,455.00
2023-04-18T11:57:58.451Z,455.00
2023-04-18T11:58:58.545Z,454.00
2023-04-18T11:59:58.606Z,453.00
2023-04-18T12:00:58.621Z,455.00
2023-04-18T12:01:59.008Z,454.00
2023-04-18T12:02:58.862Z,454.00
2023-04-18T12:03:59.042Z,453.00
2023-04-18T12:04:59.313Z,454.00
2023-04-18T12:05:59.177Z,456.00
2023-04-18T12:06:59.066Z,456.00
2023-04-18T12:07:59.089Z,456.00
2023-04-18T12:08:59.190Z,457.00
2023-04-18T12:09:59.048Z,460.00
2023-04-18T12:10:59.038Z,461.00
2023-04-18T12:11:59.026Z,463.00
2023-04-18T12:12:59.066Z,464.00
2023-04-18T12:13:59.044Z,466.00
2023-04-18T12:14:59.041Z,468.00
2023-04-18T12:15:59.126Z,467.00
2023-04-18T12:16:59.255Z,464.00
2023-04-18T12:17:59.322Z,461.00
2023-04-18T12:18:59.333Z,457.00
2023-04-18T12:19:59.369Z,460.00
2023-04-18T12:20:59.425Z,461.00
2023-04-18T12:21:59.503Z,462.00
2023-04-18T12:22:59.569Z,463.00
2023-04-18T12:23:59.634Z,465.00
2023-04-18T12:24:59.721Z,467.00
2023-04-18T12:25:59.768Z,469.00
2023-04-18T12:26:59.845Z,471.00
2023-04-18T12:27:59.872Z,472.00
2023-04-18T12:28:59.943Z,472.00